Little Amwell, United Kingdom
Current Conditions -  °F | °C
As of 12:50 AM on Tuesday 25 Nov 2014 (Local Time) from EGSS Reporting Station
Haze Haze  
Wind Chill: 27°   Ceiling: Unl
Heat Index: 32°   Visibility: 0.93mi
Dew Point: 32°   Wind: 5mph
Humidity: 100%   Direction: 360°N
Pressure: 30.3"   Gusts: NA
Location:  51.78°N, 0.03°W
Report Text: EGSS 250050Z 36004KT 1500 BR NSC 00/00 Q1026
Loading
Personal Weather Stations






























Interactive Weather Map New forecast layout! Learn more

10-Day Weather Forecast

Advertisements
Track Severe Weather on mobile